Time;durP1;ratioP1;P1;durP2;ratioP2;P2;SDS_P1;SDS_P2;PMS_P1;PMS_P2;Temp;Humidity;BMP_temperature;BMP_pressure;BME280_temperature;BME280_humidity;BME280_pressure;Samples;Min_cycle;Max_cycle;Signal;HPM_P1;HPM_P2
2023/10/23 00:00:24;;;;;;;4.75;4.43;;;;;;;;;;5996201;29;20069;-92
2023/10/23 00:03:27;;;;;;;3.60;3.50;;;;;;;;;;6004010;29;20501;-92
2023/10/23 00:06:29;;;;;;;4.28;4.10;;;;;;;;;;6004213;29;20057;-92
2023/10/23 00:09:31;;;;;;;4.15;3.95;;;;;;;;;;5995964;29;20078;-92
2023/10/23 00:12:33;;;;;;;4.18;4.00;;;;;;;;;;5990974;29;20054;-93
2023/10/23 00:15:35;;;;;;;3.63;3.53;;;;;;;;;;5993193;29;20054;-93
2023/10/23 00:18:38;;;;;;;4.65;4.53;;;;;;;;;;6002650;29;20072;-92
2023/10/23 00:21:40;;;;;;;5.00;4.60;;;;;;;;;;5994177;29;20086;-92
2023/10/23 00:24:42;;;;;;;4.70;4.32;;;;;;;;;;5995265;29;20062;-92
2023/10/23 00:27:44;;;;;;;4.22;4.03;;;;;;;;;;6001956;29;20045;-92
2023/10/23 00:30:46;;;;;;;4.40;4.20;;;;;;;;;;5988288;29;20046;-93
2023/10/23 00:33:48;;;;;;;4.22;4.13;;;;;;;;;;6005205;29;20061;-92
2023/10/23 00:36:50;;;;;;;4.93;4.72;;;;;;;;;;5978937;29;20058;-92
2023/10/23 00:39:52;;;;;;;5.13;4.93;;;;;;;;;;5996394;29;20065;-92
2023/10/23 00:42:54;;;;;;;4.80;4.60;;;;;;;;;;6001549;29;20045;-92
2023/10/23 00:45:57;;;;;;;4.68;4.57;;;;;;;;;;6001336;29;20039;-93
2023/10/23 00:48:59;;;;;;;3.90;3.80;;;;;;;;;;6001354;29;20037;-92
2023/10/23 00:52:02;;;;;;;4.43;4.15;;;;;;;;;;5996262;29;20061;-93
2023/10/23 00:55:03;;;;;;;5.88;4.93;;;;;;;;;;6013238;29;20504;-93
2023/10/23 00:58:06;;;;;;;5.15;4.95;;;;;;;;;;6001614;29;20064;-92
2023/10/23 01:01:12;;;;;;;6.40;6.15;;;;;;;;;;5985537;29;20062;-92
2023/10/23 01:04:15;;;;;;;3.78;3.67;;;;;;;;;;5998920;29;20056;-93
2023/10/23 01:07:17;;;;;;;4.00;3.90;;;;;;;;;;6002057;29;20303;-93
2023/10/23 01:10:19;;;;;;;5.78;5.47;;;;;;;;;;6000794;29;20038;-92
2023/10/23 01:13:21;;;;;;;5.07;4.88;;;;;;;;;;6000724;29;20054;-92
2023/10/23 01:16:24;;;;;;;5.07;4.75;;;;;;;;;;5992655;29;20670;-92
2023/10/23 01:19:26;;;;;;;5.13;4.82;;;;;;;;;;5982439;29;20053;-94
2023/10/23 01:22:28;;;;;;;3.83;3.72;;;;;;;;;;6000891;29;20547;-92
2023/10/23 01:25:30;;;;;;;4.40;4.30;;;;;;;;;;5985931;29;20049;-92
2023/10/23 01:28:32;;;;;;;3.70;3.60;;;;;;;;;;5999310;29;20046;-92
2023/10/23 01:31:34;;;;;;;3.97;3.78;;;;;;;;;;5994740;29;20648;-92
2023/10/23 01:34:36;;;;;;;4.38;4.15;;;;;;;;;;5998298;29;20053;-92
2023/10/23 01:37:47;;;;;;;3.65;3.55;;;;;;;;;;5982887;29;20065;-92
2023/10/23 01:40:49;;;;;;;4.90;4.80;;;;;;;;;;5980848;29;20050;-92
2023/10/23 01:43:51;;;;;;;3.97;3.88;;;;;;;;;;6000933;29;20050;-93
2023/10/23 01:46:53;;;;;;;5.82;5.63;;;;;;;;;;5971052;29;20058;-92
2023/10/23 01:49:55;;;;;;;4.13;4.03;;;;;;;;;;5995912;29;20125;-93
2023/10/23 01:52:57;;;;;;;3.80;3.70;;;;;;;;;;6000089;29;20359;-92
2023/10/23 01:56:08;;;;;;;4.55;4.35;;;;;;;;;;5983356;29;20042;-92
2023/10/23 01:59:10;;;;;;;4.20;4.10;;;;;;;;;;6007408;29;20061;-93
2023/10/23 02:02:12;;;;;;;4.32;4.13;;;;;;;;;;5998775;29;20583;-93
2023/10/23 02:05:15;;;;;;;3.83;3.72;;;;;;;;;;5997798;29;20045;-92
2023/10/23 02:08:23;;;;;;;3.83;3.72;;;;;;;;;;5982518;29;20050;-93
2023/10/23 02:11:26;;;;;;;4.00;3.90;;;;;;;;;;6008978;29;20046;-93
2023/10/23 02:14:28;;;;;;;4.15;4.05;;;;;;;;;;5997436;29;20066;-93
2023/10/23 02:17:30;;;;;;;3.70;3.60;;;;;;;;;;5996452;29;20465;-93
2023/10/23 02:20:34;;;;;;;3.88;3.78;;;;;;;;;;6004381;29;20469;-92
2023/10/23 02:23:36;;;;;;;4.78;4.63;;;;;;;;;;5998383;29;20521;-92
2023/10/23 02:26:54;;;;;;;3.97;3.88;;;;;;;;;;6000291;29;20049;-93
2023/10/23 02:29:56;;;;;;;4.43;4.32;;;;;;;;;;6000828;29;20077;-92
2023/10/23 02:32:59;;;;;;;3.67;3.58;;;;;;;;;;5999227;29;20519;-92
2023/10/23 02:36:01;;;;;;;4.25;4.05;;;;;;;;;;5993584;29;20042;-92
2023/10/23 02:39:03;;;;;;;4.53;4.40;;;;;;;;;;5991156;29;20397;-94
2023/10/23 02:42:05;;;;;;;3.67;3.58;;;;;;;;;;5996554;29;20085;-93
2023/10/23 02:45:07;;;;;;;4.43;4.22;;;;;;;;;;5997043;29;20050;-93
2023/10/23 02:48:09;;;;;;;3.53;3.42;;;;;;;;;;5996463;29;20078;-96
2023/10/23 02:51:12;;;;;;;4.43;4.20;;;;;;;;;;5998020;29;20053;-96
2023/10/23 02:54:14;;;;;;;4.22;4.07;;;;;;;;;;5998504;29;20492;-96
2023/10/23 02:57:20;;;;;;;3.67;3.58;;;;;;;;;;5997861;29;20039;-96
2023/10/23 03:00:22;;;;;;;3.67;3.58;;;;;;;;;;5998921;29;20182;-95
2023/10/23 03:03:25;;;;;;;3.60;3.50;;;;;;;;;;5999222;29;20037;-95
2023/10/23 03:06:30;;;;;;;3.30;3.20;;;;;;;;;;5985920;29;20058;-96
2023/10/23 03:09:33;;;;;;;3.53;3.42;;;;;;;;;;5979802;29;20057;-95
2023/10/23 03:12:38;;;;;;;3.60;3.50;;;;;;;;;;5992271;29;20126;-96
2023/10/23 03:15:40;;;;;;;4.05;3.85;;;;;;;;;;5994660;29;20083;-96
2023/10/23 03:18:42;;;;;;;5.10;4.90;;;;;;;;;;5985200;29;20515;-96
2023/10/23 03:21:44;;;;;;;3.45;3.35;;;;;;;;;;5978356;29;20164;-96
2023/10/23 03:24:47;;;;;;;3.35;3.25;;;;;;;;;;5987891;29;20053;-96
2023/10/23 03:27:49;;;;;;;3.55;3.45;;;;;;;;;;6000904;29;20053;-96
2023/10/23 03:30:52;;;;;;;4.45;3.88;;;;;;;;;;5994532;29;20042;-96
2023/10/23 03:33:54;;;;;;;5.47;5.10;;;;;;;;;;5996752;29;20057;-96
2023/10/23 03:36:56;;;;;;;4.10;4.00;;;;;;;;;;5992787;29;20050;-96
2023/10/23 03:39:59;;;;;;;3.67;3.50;;;;;;;;;;5993218;29;20038;-96
2023/10/23 03:43:03;;;;;;;3.40;3.30;;;;;;;;;;5988411;29;20076;-96
2023/10/23 03:46:05;;;;;;;3.83;3.70;;;;;;;;;;5986667;29;20044;-96
2023/10/23 03:49:07;;;;;;;4.38;4.18;;;;;;;;;;5984766;29;20050;-96
2023/10/23 03:52:09;;;;;;;4.20;4.10;;;;;;;;;;5991725;29;20365;-96
2023/10/23 03:55:11;;;;;;;4.05;3.95;;;;;;;;;;5978801;29;20145;-96
2023/10/23 03:58:13;;;;;;;4.88;4.68;;;;;;;;;;5997340;29;20078;-96
2023/10/23 04:01:15;;;;;;;4.20;4.10;;;;;;;;;;5998453;29;20049;-96
2023/10/23 04:04:18;;;;;;;3.95;3.85;;;;;;;;;;5989693;29;20130;-96
2023/10/23 04:07:20;;;;;;;3.90;3.80;;;;;;;;;;5986630;29;20062;-96
2023/10/23 04:10:23;;;;;;;3.33;3.22;;;;;;;;;;5993086;29;20050;-96
2023/10/23 04:13:27;;;;;;;4.38;4.28;;;;;;;;;;5982486;29;20057;-96
2023/10/23 04:16:32;;;;;;;3.83;3.72;;;;;;;;;;6002912;29;20231;-96
2023/10/23 04:19:34;;;;;;;3.83;3.72;;;;;;;;;;6000797;29;20058;-96
2023/10/23 04:22:36;;;;;;;5.63;5.25;;;;;;;;;;5998797;29;20398;-96
2023/10/23 04:25:38;;;;;;;4.10;3.80;;;;;;;;;;6005712;29;20069;-96
2023/10/23 04:28:43;;;;;;;4.63;4.32;;;;;;;;;;5995449;29;20504;-96
2023/10/23 04:31:46;;;;;;;4.20;4.10;;;;;;;;;;5985994;29;20046;-96
2023/10/23 04:34:48;;;;;;;4.45;4.25;;;;;;;;;;5998009;29;20054;-96
2023/10/23 04:37:50;;;;;;;4.38;4.18;;;;;;;;;;5997470;29;20046;-96
2023/10/23 04:40:55;;;;;;;5.18;4.97;;;;;;;;;;6001097;29;20497;-96
2023/10/23 04:43:58;;;;;;;4.43;4.22;;;;;;;;;;6000803;29;20096;-95
2023/10/23 04:47:01;;;;;;;4.32;4.13;;;;;;;;;;5995997;29;20069;-94
2023/10/23 04:50:03;;;;;;;4.93;4.65;;;;;;;;;;6000323;29;20050;-95
2023/10/23 04:53:08;;;;;;;4.97;4.78;;;;;;;;;;5999074;29;20139;-95
2023/10/23 05:03:29;;;;;;;4.28;4.07;;;;;;;;;;5995312;29;20050;-96
2023/10/23 05:06:32;;;;;;;5.07;4.32;;;;;;;;;;5989970;29;20046;-96
2023/10/23 05:09:35;;;;;;;3.85;3.65;;;;;;;;;;5981134;29;20094;-96
2023/10/23 05:12:37;;;;;;;4.30;4.15;;;;;;;;;;5977711;29;20082;-96
2023/10/23 05:15:41;;;;;;;4.53;4.32;;;;;;;;;;5982769;29;20046;-96
2023/10/23 05:18:47;;;;;;;5.68;5.40;;;;;;;;;;5984322;29;20058;-96
2023/10/23 05:21:50;;;;;;;4.63;4.43;;;;;;;;;;5984120;29;20409;-96
2023/10/23 05:24:52;;;;;;;5.75;5.35;;;;;;;;;;5986274;29;20694;-96
2023/10/23 05:27:55;;;;;;;5.88;5.55;;;;;;;;;;5987764;29;20123;-96
2023/10/23 05:31:03;;;;;;;5.55;5.15;;;;;;;;;;5988680;29;20130;-96
2023/10/23 05:34:09;;;;;;;4.30;4.15;;;;;;;;;;5986186;29;20050;-96
2023/10/23 05:37:17;;;;;;;4.95;4.75;;;;;;;;;;5984358;29;20080;-96
2023/10/23 05:40:22;;;;;;;5.43;5.13;;;;;;;;;;5983888;29;20153;-96
2023/10/23 05:43:26;;;;;;;4.95;4.60;;;;;;;;;;5984390;29;20122;-96
2023/10/23 05:46:28;;;;;;;4.97;4.68;;;;;;;;;;5984519;29;20509;-96
2023/10/23 05:49:31;;;;;;;4.75;4.55;;;;;;;;;;5980180;29;20668;-96
2023/10/23 05:52:33;;;;;;;6.28;5.85;;;;;;;;;;5970312;29;20066;-96
2023/10/23 05:55:36;;;;;;;5.93;5.63;;;;;;;;;;5981381;29;20386;-96
2023/10/23 05:58:39;;;;;;;5.15;4.85;;;;;;;;;;5980554;29;20108;-96
2023/10/23 06:01:44;;;;;;;6.65;6.13;;;;;;;;;;5991059;29;20077;-96
2023/10/23 06:04:46;;;;;;;5.47;4.97;;;;;;;;;;5961419;29;20110;-96
2023/10/23 06:07:49;;;;;;;7.25;6.68;;;;;;;;;;5978704;29;20593;-96
2023/10/23 06:10:53;;;;;;;4.57;4.28;;;;;;;;;;5977401;29;20078;-96
2023/10/23 06:13:55;;;;;;;5.28;4.95;;;;;;;;;;5974305;29;20243;-96
2023/10/23 06:16:57;;;;;;;6.70;6.38;;;;;;;;;;5980812;29;20137;-96
2023/10/23 06:20:00;;;;;;;5.72;5.43;;;;;;;;;;5981789;29;20053;-95
2023/10/23 06:23:03;;;;;;;5.38;4.70;;;;;;;;;;5969289;29;20519;-96
2023/10/23 06:26:06;;;;;;;5.75;5.40;;;;;;;;;;5979406;29;20153;-95
2023/10/23 06:29:09;;;;;;;6.00;5.65;;;;;;;;;;5980208;29;20316;-95
2023/10/23 06:32:13;;;;;;;5.30;5.07;;;;;;;;;;5977079;29;20606;-95
2023/10/23 06:35:17;;;;;;;5.13;4.88;;;;;;;;;;5972220;29;20229;-95
2023/10/23 06:38:19;;;;;;;5.40;5.10;;;;;;;;;;5976022;29;20610;-94
2023/10/23 06:41:21;;;;;;;5.38;5.07;;;;;;;;;;5992096;29;20046;-94
2023/10/23 06:44:23;;;;;;;5.68;5.38;;;;;;;;;;5976581;29;20047;-94
2023/10/23 06:47:25;;;;;;;4.70;4.50;;;;;;;;;;5972134;29;20046;-95
2023/10/23 06:50:26;;;;;;;5.40;5.13;;;;;;;;;;5975977;29;20050;-95
2023/10/23 06:53:28;;;;;;;3.92;3.83;;;;;;;;;;5970054;29;20039;-94
2023/10/23 06:56:30;;;;;;;4.80;4.40;;;;;;;;;;5969852;29;20054;-95
2023/10/23 06:59:33;;;;;;;4.53;4.22;;;;;;;;;;5970130;29;20505;-96
2023/10/23 07:02:38;;;;;;;6.60;6.20;;;;;;;;;;5972280;29;20053;-95
2023/10/23 07:05:40;;;;;;;5.72;5.30;;;;;;;;;;5977612;29;20054;-95
2023/10/23 07:08:42;;;;;;;4.97;4.78;;;;;;;;;;5991955;29;20049;-95
2023/10/23 07:11:47;;;;;;;6.18;5.78;;;;;;;;;;5974346;29;20046;-95
2023/10/23 07:14:48;;;;;;;7.18;5.88;;;;;;;;;;5972330;29;20493;-95
2023/10/23 07:17:51;;;;;;;6.25;5.95;;;;;;;;;;5974389;29;20106;-94
2023/10/23 07:20:55;;;;;;;4.93;4.72;;;;;;;;;;5973924;29;20069;-95
2023/10/23 07:23:58;;;;;;;7.20;6.90;;;;;;;;;;5973786;29;20051;-96
2023/10/23 07:27:00;;;;;;;5.80;5.50;;;;;;;;;;5975454;29;20115;-96
2023/10/23 07:30:06;;;;;;;5.85;5.53;;;;;;;;;;5985809;29;20046;-96
2023/10/23 07:33:08;;;;;;;5.63;5.32;;;;;;;;;;5965266;29;20101;-96
2023/10/23 07:36:11;;;;;;;5.28;4.97;;;;;;;;;;5970555;29;20161;-96
2023/10/23 07:39:13;;;;;;;6.20;5.80;;;;;;;;;;5972856;29;20074;-96
2023/10/23 07:42:15;;;;;;;5.50;5.20;;;;;;;;;;5971339;29;20054;-96
2023/10/23 07:45:17;;;;;;;6.22;5.82;;;;;;;;;;5977038;29;20583;-96
2023/10/23 07:48:20;;;;;;;5.20;5.00;;;;;;;;;;5971286;29;20054;-96
2023/10/23 07:51:25;;;;;;;6.57;6.18;;;;;;;;;;5967165;29;20105;-96
2023/10/23 07:54:27;;;;;;;5.47;5.28;;;;;;;;;;5976917;29;20057;-96
2023/10/23 07:57:29;;;;;;;5.68;5.38;;;;;;;;;;5974591;29;20536;-96
2023/10/23 08:00:31;;;;;;;6.35;6.05;;;;;;;;;;5986172;29;20080;-96
2023/10/23 08:03:34;;;;;;;5.15;4.95;;;;;;;;;;5971131;29;20050;-96
2023/10/23 08:06:36;;;;;;;5.20;4.85;;;;;;;;;;5972623;29;20054;-96
2023/10/23 08:09:38;;;;;;;6.35;5.97;;;;;;;;;;5973457;29;20258;-96
2023/10/23 08:12:41;;;;;;;5.40;5.20;;;;;;;;;;5963588;29;20430;-96
2023/10/23 08:15:43;;;;;;;5.72;5.43;;;;;;;;;;5972623;29;20058;-96
2023/10/23 08:18:45;;;;;;;7.18;6.78;;;;;;;;;;5970928;29;20049;-96
2023/10/23 08:21:48;;;;;;;6.57;6.28;;;;;;;;;;5969462;29;20087;-96
2023/10/23 08:24:50;;;;;;;5.47;5.20;;;;;;;;;;5979968;29;20058;-96
2023/10/23 08:27:52;;;;;;;7.07;6.60;;;;;;;;;;5975292;29;20062;-96
2023/10/23 08:30:55;;;;;;;8.10;7.60;;;;;;;;;;5976412;29;20039;-96
2023/10/23 08:33:57;;;;;;;6.78;6.45;;;;;;;;;;5978957;29;20046;-96
2023/10/23 08:36:59;;;;;;;6.15;5.78;;;;;;;;;;5978744;29;20050;-96
2023/10/23 08:40:06;;;;;;;6.75;6.35;;;;;;;;;;5974167;29;20047;-96
2023/10/23 08:43:08;;;;;;;7.82;7.20;;;;;;;;;;5968849;29;20079;-96
2023/10/23 08:46:10;;;;;;;6.30;5.93;;;;;;;;;;5984801;29;20569;-96
2023/10/23 08:49:12;;;;;;;6.95;6.55;;;;;;;;;;5977851;29;20055;-96
2023/10/23 08:52:19;;;;;;;6.13;5.80;;;;;;;;;;5975272;29;20172;-96
2023/10/23 08:55:23;;;;;;;6.60;6.15;;;;;;;;;;5975989;29;20058;-96
2023/10/23 08:58:26;;;;;;;6.50;6.07;;;;;;;;;;5973456;29;20080;-96
2023/10/23 09:01:29;;;;;;;4.78;4.57;;;;;;;;;;5976102;29;20057;-96
2023/10/23 09:04:31;;;;;;;6.78;6.38;;;;;;;;;;5977372;29;20224;-96
2023/10/23 09:07:33;;;;;;;5.53;5.25;;;;;;;;;;5976373;29;20066;-96
2023/10/23 09:10:55;;;;;;;6.50;6.00;;;;;;;;;;5962018;29;20171;-96
2023/10/23 09:13:57;;;;;;;6.40;6.05;;;;;;;;;;5970447;29;20042;-96
2023/10/23 09:16:59;;;;;;;6.45;6.18;;;;;;;;;;5965262;29;20058;-96
2023/10/23 09:20:18;;;;;;;5.15;4.95;;;;;;;;;;5978401;29;20057;-88
2023/10/23 09:23:20;;;;;;;5.75;5.43;;;;;;;;;;5977936;29;20050;-92
2023/10/23 09:26:23;;;;;;;4.63;4.43;;;;;;;;;;5975387;29;20053;-88
2023/10/23 09:29:25;;;;;;;5.75;5.45;;;;;;;;;;5976939;29;20050;-93
2023/10/23 09:32:27;;;;;;;5.75;5.45;;;;;;;;;;5990549;29;20049;-93
2023/10/23 09:35:30;;;;;;;4.53;4.22;;;;;;;;;;5987400;29;20111;-96
2023/10/23 09:38:34;;;;;;;7.25;6.72;;;;;;;;;;5978033;29;20062;-95
2023/10/23 09:41:41;;;;;;;5.78;5.38;;;;;;;;;;6025901;29;20129;-96
2023/10/23 09:44:46;;;;;;;4.78;4.38;;;;;;;;;;6032548;29;20101;-96
2023/10/23 09:48:02;;;;;;;6.25;5.68;;;;;;;;;;6065857;23;20060;-96
2023/10/23 09:51:12;;;;;;;5.72;5.32;;;;;;;;;;6032518;29;20859;-96
2023/10/23 09:54:20;;;;;;;6.55;6.13;;;;;;;;;;6050478;29;20053;-96
2023/10/23 10:29:32;;;;;;;6.03;5.60;;;;;;;11.14;100.00;100640.72;7776213;22;1841516;-94
2023/10/23 10:32:35;;;;;;;4.90;4.53;;;;;;;11.20;100.00;100648.00;7723879;23;20374;-95
2023/10/23 10:36:04;;;;;;;4.95;4.72;;;;;;;11.39;100.00;100651.72;7728800;23;20063;-96
2023/10/23 10:39:08;;;;;;;5.47;5.18;;;;;;;11.49;100.00;100647.44;7725972;23;20016;-95
2023/10/23 10:42:16;;;;;;;4.35;4.18;;;;;;;11.56;100.00;100643.41;7726999;23;20055;-95
2023/10/23 10:45:20;;;;;;;5.38;5.07;;;;;;;11.66;100.00;100643.47;7724712;23;20031;-96
2023/10/23 10:48:41;;;;;;;7.28;6.78;;;;;;;11.72;100.00;100636.94;7724902;23;20024;-95
2023/10/23 10:51:44;;;;;;;5.55;5.25;;;;;;;11.76;100.00;100644.34;7723512;23;20099;-96
2023/10/23 10:54:48;;;;;;;5.47;5.07;;;;;;;11.82;100.00;100637.84;7697096;23;20520;-95
2023/10/23 10:57:53;;;;;;;5.60;5.40;;;;;;;11.90;100.00;100634.63;7719719;23;20031;-94
2023/10/23 11:00:56;;;;;;;5.85;5.38;;;;;;;11.94;100.00;100630.84;7714317;23;20016;-93
2023/10/23 11:04:00;;;;;;;6.00;5.68;;;;;;;11.97;100.00;100630.59;7712797;23;20020;-94
2023/10/23 11:07:02;;;;;;;5.63;5.10;;;;;;;12.01;100.00;100621.59;7713896;23;20099;-96
2023/10/23 11:10:06;;;;;;;5.30;5.10;;;;;;;12.05;100.00;100621.22;7713838;23;20386;-96
2023/10/23 11:13:14;;;;;;;6.07;5.78;;;;;;;12.11;100.00;100609.50;7704984;23;20402;-96
2023/10/23 11:16:19;;;;;;;4.80;4.57;;;;;;;12.18;100.00;100610.63;7706451;23;20038;-96
2023/10/23 11:19:21;;;;;;;4.13;3.97;;;;;;;12.26;100.00;100604.78;7709673;23;20021;-96
2023/10/23 11:22:26;;;;;;;5.18;4.78;;;;;;;12.31;100.00;100609.59;7705551;23;20493;-96
2023/10/23 11:25:28;;;;;;;4.97;4.78;;;;;;;12.30;100.00;100603.59;7705326;23;20527;-96
2023/10/23 11:28:30;;;;;;;4.57;4.40;;;;;;;12.24;100.00;100612.69;7703461;23;20029;-96
2023/10/23 11:31:33;;;;;;;4.47;4.28;;;;;;;12.17;100.00;100606.38;7702553;23;20095;-96
2023/10/23 11:34:36;;;;;;;4.68;4.47;;;;;;;12.10;100.00;100610.47;7675265;23;20025;-95
2023/10/23 11:37:40;;;;;;;6.22;5.45;;;;;;;12.11;100.00;100606.91;7703226;23;20024;-95
2023/10/23 11:40:48;;;;;;;6.13;5.80;;;;;;;12.23;100.00;100610.25;7704087;23;20082;-96
2023/10/23 11:43:59;;;;;;;4.95;4.75;;;;;;;12.48;100.00;100614.19;7701358;23;20027;-95
2023/10/23 11:47:04;;;;;;;4.28;4.07;;;;;;;12.74;100.00;100604.13;7704039;23;20024;-96
2023/10/23 11:50:10;;;;;;;4.30;4.07;;;;;;;12.95;100.00;100600.63;7703869;23;20423;-95
2023/10/23 11:53:15;;;;;;;4.57;4.38;;;;;;;13.14;100.00;100587.63;7704495;23;20031;-96
2023/10/23 11:56:17;;;;;;;5.75;5.45;;;;;;;13.32;100.00;100587.81;7702408;23;20025;-96
2023/10/23 11:59:21;;;;;;;6.38;6.03;;;;;;;13.64;100.00;100586.66;7702844;23;20024;-96
2023/10/23 12:02:23;;;;;;;4.63;4.43;;;;;;;13.87;100.00;100571.59;7703127;23;20021;-96
2023/10/23 12:05:26;;;;;;;4.82;4.63;;;;;;;14.08;100.00;100558.34;7704324;23;20024;-96
2023/10/23 12:08:28;;;;;;;4.82;4.63;;;;;;;14.13;100.00;100536.13;7704099;23;20028;-96
2023/10/23 12:11:31;;;;;;;4.88;4.60;;;;;;;14.17;100.00;100539.28;7704149;23;20017;-96
2023/10/23 12:14:33;;;;;;;4.07;3.97;;;;;;;14.06;100.00;100529.88;7702562;23;20035;-96
2023/10/23 12:17:37;;;;;;;4.28;4.07;;;;;;;14.02;100.00;100522.50;7702409;23;20020;-96
2023/10/23 12:20:40;;;;;;;4.85;4.63;;;;;;;13.96;100.00;100518.66;7705063;23;20447;-96
2023/10/23 12:23:42;;;;;;;5.32;5.07;;;;;;;14.02;100.00;100520.72;7705373;23;20023;-96
2023/10/23 12:26:44;;;;;;;3.60;3.50;;;;;;;13.94;100.00;100511.03;7703767;23;20815;-96
2023/10/23 12:29:46;;;;;;;4.30;4.10;;;;;;;13.94;100.00;100505.00;7703290;23;20024;-96
2023/10/23 12:32:49;;;;;;;4.50;4.20;;;;;;;13.93;100.00;100504.16;7699773;23;20043;-96
2023/10/23 12:36:13;;;;;;;4.70;4.28;;;;;;;13.97;100.00;100489.91;7701233;23;20509;-96
2023/10/23 12:39:15;;;;;;;4.35;4.15;;;;;;;14.05;100.00;100488.38;7701825;23;20031;-96
2023/10/23 12:42:18;;;;;;;5.15;4.90;;;;;;;14.05;100.00;100483.16;7702560;23;20024;-96
2023/10/23 12:45:23;;;;;;;3.80;3.70;;;;;;;14.16;100.00;100489.00;7681584;23;20111;-96
2023/10/23 12:48:26;;;;;;;4.30;4.10;;;;;;;14.15;100.00;100479.53;7705862;23;20088;-96
2023/10/23 12:51:28;;;;;;;3.88;3.78;;;;;;;14.24;100.00;100477.84;7707744;23;20023;-96
2023/10/23 12:54:31;;;;;;;4.30;4.10;;;;;;;14.33;100.00;100471.75;7706343;23;20443;-96
2023/10/23 12:57:34;;;;;;;4.90;4.57;;;;;;;14.45;100.00;100459.34;7705974;23;20021;-96
2023/10/23 13:00:38;;;;;;;4.75;4.50;;;;;;;14.51;100.00;100450.94;7708606;23;20013;-96
2023/10/23 13:03:41;;;;;;;3.92;3.72;;;;;;;14.47;100.00;100448.78;7706050;23;20020;-96
2023/10/23 13:06:44;;;;;;;4.40;4.05;;;;;;;14.46;100.00;100447.13;7704536;23;20021;-96
2023/10/23 13:09:47;;;;;;;3.88;3.65;;;;;;;14.41;100.00;100432.78;7703139;23;20332;-96
2023/10/23 13:12:50;;;;;;;3.85;3.67;;;;;;;14.40;100.00;100436.34;7727659;23;20024;-96
2023/10/23 13:15:55;;;;;;;3.90;3.80;;;;;;;14.36;100.00;100437.63;7704110;23;20119;-96
2023/10/23 13:18:58;;;;;;;3.55;3.38;;;;;;;14.29;100.00;100433.97;7702458;23;20031;-96
2023/10/23 13:22:00;;;;;;;4.40;4.20;;;;;;;14.28;100.00;100429.72;7728207;23;20102;-96
2023/10/23 13:25:13;;;;;;;4.00;3.70;;;;;;;14.34;100.00;100412.69;7702447;23;20027;-96
2023/10/23 13:28:15;;;;;;;3.88;3.70;;;;;;;14.36;100.00;100406.38;7704983;23;20021;-96
2023/10/23 13:31:18;;;;;;;4.05;3.85;;;;;;;14.37;100.00;100402.78;7701893;23;20024;-96
2023/10/23 13:34:23;;;;;;;3.72;3.63;;;;;;;14.48;100.00;100408.75;7702707;23;20025;-96
2023/10/23 13:37:26;;;;;;;4.30;4.10;;;;;;;14.55;100.00;100410.63;7701683;23;20863;-96
2023/10/23 13:40:28;;;;;;;4.57;4.38;;;;;;;14.61;100.00;100409.22;7701227;23;20128;-96
2023/10/23 13:43:30;;;;;;;4.38;4.18;;;;;;;14.58;100.00;100405.13;7699228;23;20072;-96
2023/10/23 13:46:33;;;;;;;3.53;3.42;;;;;;;14.51;100.00;100413.66;7700691;23;20028;-96
2023/10/23 13:49:35;;;;;;;4.43;4.28;;;;;;;14.49;100.00;100413.00;7700714;23;20023;-96
2023/10/23 13:52:37;;;;;;;5.50;5.10;;;;;;;14.40;100.00;100404.28;7701204;23;20020;-96
2023/10/23 13:55:39;;;;;;;3.72;3.53;;;;;;;14.36;100.00;100398.56;7706162;23;20021;-86
2023/10/23 13:58:43;;;;;;;4.22;4.03;;;;;;;14.31;100.00;100400.78;7701444;23;20435;-96
2023/10/23 14:01:45;;;;;;;3.45;3.30;;;;;;;14.30;100.00;100390.53;7698219;23;20823;-96
2023/10/23 14:04:48;;;;;;;3.55;3.45;;;;;;;14.30;100.00;100393.94;7700481;23;20023;-96
2023/10/23 14:07:51;;;;;;;3.38;3.28;;;;;;;14.29;100.00;100394.91;7700030;23;20115;-96
2023/10/23 14:10:54;;;;;;;4.00;3.80;;;;;;;14.28;100.00;100382.84;7698354;23;20435;-96
2023/10/23 14:14:19;;;;;;;3.35;3.17;;;;;;;14.21;100.00;100376.63;7698671;23;20024;-96
2023/10/23 14:17:23;;;;;;;4.22;3.85;;;;;;;14.17;100.00;100364.84;7673630;23;20107;-96
2023/10/23 14:20:26;;;;;;;4.35;4.25;;;;;;;14.13;100.00;100356.50;7700602;23;20023;-96
2023/10/23 14:23:29;;;;;;;3.65;3.45;;;;;;;14.08;100.00;100357.94;7673232;23;20585;-96
2023/10/23 14:26:32;;;;;;;3.15;3.05;;;;;;;14.02;100.00;100361.13;7700115;23;20017;-96
2023/10/23 14:29:35;;;;;;;4.35;4.15;;;;;;;14.02;100.00;100358.53;7699289;23;20055;-96
2023/10/23 14:32:40;;;;;;;3.60;3.50;;;;;;;13.92;100.00;100350.78;7698224;23;20028;-96
2023/10/23 14:35:45;;;;;;;4.20;4.00;;;;;;;13.86;100.00;100338.34;7699112;23;20904;-96
2023/10/23 14:38:47;;;;;;;4.00;3.90;;;;;;;13.78;100.00;100334.69;7700799;23;20202;-96
2023/10/23 14:41:50;;;;;;;4.82;4.43;;;;;;;13.72;100.00;100335.28;7698797;23;20017;-96
2023/10/23 14:44:53;;;;;;;3.55;3.40;;;;;;;13.67;100.00;100328.91;7698948;23;20028;-96
2023/10/23 14:47:56;;;;;;;6.97;4.28;;;;;;;13.67;100.00;100321.91;7699289;23;20016;-96
2023/10/23 14:50:59;;;;;;;4.53;4.40;;;;;;;13.57;100.00;100321.16;7700937;23;20026;-96
2023/10/23 14:54:01;;;;;;;3.55;3.45;;;;;;;13.46;100.00;100316.13;7699747;23;20443;-96
2023/10/23 14:57:04;;;;;;;4.00;3.80;;;;;;;13.32;100.00;100313.06;7705719;23;20020;-96
2023/10/23 15:00:07;;;;;;;3.97;3.78;;;;;;;13.19;100.00;100319.50;7708858;23;20024;-96
2023/10/23 15:03:10;;;;;;;3.88;3.78;;;;;;;12.99;100.00;100313.56;7708032;23;20017;-96
2023/10/23 15:06:13;;;;;;;4.50;4.30;;;;;;;12.80;100.00;100315.28;7708444;23;20067;-96
2023/10/23 15:09:18;;;;;;;4.22;3.97;;;;;;;12.64;100.00;100318.44;7702863;23;20021;-96
2023/10/23 15:12:21;;;;;;;3.75;3.65;;;;;;;12.52;100.00;100319.59;7675138;23;20032;-96
2023/10/23 15:15:23;;;;;;;3.90;3.80;;;;;;;12.40;100.00;100310.31;7703306;23;20087;-96
2023/10/23 15:18:26;;;;;;;3.63;3.53;;;;;;;12.32;100.00;100317.94;7704347;23;20012;-96
2023/10/23 15:22:07;;;;;;;2.88;2.78;;;;;;;12.25;100.00;100318.50;7705066;23;20016;-96
2023/10/23 15:26:14;;;;;;;4.30;4.10;;;;;;;12.12;100.00;100309.34;7762828;22;20015;-96
2023/10/23 15:29:46;;;;;;;3.83;3.00;;;;;;;12.02;100.00;100302.41;7804962;22;20019;-96
2023/10/23 15:33:30;;;;;;;3.55;3.45;;;;;;;11.91;100.00;100309.47;7804131;22;20015;-96
2023/10/23 15:36:59;;;;;;;3.57;3.47;;;;;;;11.82;100.00;100308.47;7799463;22;20025;-96
2023/10/23 15:40:41;;;;;;;4.05;3.95;;;;;;;11.75;100.00;100292.63;7813816;22;20016;-96
2023/10/23 15:44:12;;;;;;;4.78;4.40;;;;;;;11.69;100.00;100292.34;7817166;22;20031;-96
2023/10/23 15:47:28;;;;;;;3.35;3.25;;;;;;;11.64;100.00;100297.94;7798457;22;20023;-96
2023/10/23 15:51:09;;;;;;;4.30;4.10;;;;;;;11.57;100.00;100295.03;6094094;27;7166508;-96
2023/10/23 15:54:24;;;;;;;5.07;4.68;;;;;;;11.51;100.00;100285.22;6239243;28;20617;-96
2023/10/23 15:58:04;;;;;;;4.55;4.35;;;;;;;11.44;100.00;100281.53;6249342;28;20053;-96
2023/10/23 16:01:27;;;;;;;5.43;5.22;;;;;;;11.33;100.00;100286.78;6225097;28;20126;-96
2023/10/23 16:04:47;;;;;;;5.30;4.90;;;;;;;11.25;100.00;100292.63;6214099;28;20619;-96
2023/10/23 16:08:04;;;;;;;6.93;4.65;;;;;;;11.17;100.00;100289.88;6207264;28;20053;-96
2023/10/23 16:11:14;;;;;;;4.63;4.35;;;;;;;11.12;100.00;100292.88;6222196;28;20968;-96
2023/10/23 16:18:33;;;;;;;5.55;5.15;;;;;;;11.05;100.00;100291.75;6255294;23;20054;-96
2023/10/23 16:22:19;;;;;;;5.35;5.00;;;;;;;11.02;100.00;100296.38;6478226;23;20317;-96
2023/10/23 16:25:44;;;;;;;3.25;3.15;;;;;;;10.98;100.00;100286.28;6180449;28;20110;-96
2023/10/23 16:29:38;;;;;;;5.20;4.90;;;;;;;10.94;100.00;100287.47;6426687;23;20111;-96
2023/10/23 16:40:36;;;;;;;3.95;3.78;;;;;;;10.65;100.00;100289.91;6296578;23;20058;-96
2023/10/23 16:43:41;;;;;;;4.25;4.05;;;;;;;10.59;100.00;100284.44;6051686;29;20056;-96
2023/10/23 16:46:53;;;;;;;4.53;4.32;;;;;;;10.57;100.00;100287.16;6075523;29;20888;-96
2023/10/23 16:50:19;;;;;;;4.18;3.97;;;;;;;10.55;100.00;100286.44;6084295;23;20058;-96
2023/10/23 16:53:43;;;;;;;4.07;3.88;;;;;;;10.53;100.00;100286.59;6048363;29;20045;-96
2023/10/23 16:57:04;;;;;;;4.88;4.68;;;;;;;10.53;100.00;100285.75;6032672;29;20062;-96
2023/10/23 17:00:29;;;;;;;4.90;4.60;;;;;;;10.50;100.00;100284.22;6006004;29;20099;-96
2023/10/23 17:19:54;;;;;;;6.63;6.32;;;;;;;10.23;100.00;100289.88;7192784;23;20025;-96
2023/10/23 17:24:26;;;;;;;3.70;3.50;;;;;;;10.14;100.00;100301.78;6006947;29;20113;-96
2023/10/23 17:28:12;;;;;;;4.68;4.47;;;;;;;10.10;100.00;100297.81;5974458;29;20058;-96
2023/10/23 17:32:15;;;;;;;5.85;4.85;;;;;;;10.12;100.00;100300.28;5958461;29;20505;-96
2023/10/23 17:36:07;;;;;;;5.53;5.13;;;;;;;10.14;100.00;100313.91;6569337;23;20058;-96
2023/10/23 17:39:46;;;;;;;5.60;5.20;;;;;;;10.15;100.00;100297.44;5987703;29;20065;-96
2023/10/23 17:47:15;;;;;;;4.40;4.22;;;;;;;10.14;100.00;100296.63;5965012;29;19929;-96